Time,TemperatureF,DewpointF,PressureIn,WindDirection,WindDirectionDegrees,WindSpeedMPH,WindSpeedGustMPH,Humidity,HourlyPrecipIn,Conditions,Clouds,dailyrainin,SoftwareType,DateUTC
2013-07-12 00:01:00,83.0,-99.9,29.99,SE,145,3.0,6.0,-999,-99.99,,,-99.99,,2013-07-12 04:01:00,
2013-07-12 01:02:00,82.0,-99.9,29.97,SSE,158,9.0,13.0,-999,-99.99,,,-99.99,,2013-07-12 05:02:00,
2013-07-12 01:12:00,82.0,-99.9,29.96,SSE,162,10.0,14.0,-999,-99.99,,,-99.99,,2013-07-12 05:12:00,
2013-07-12 01:32:00,82.0,-99.9,29.94,SSE,163,4.0,9.0,-999,-99.99,,,-99.99,,2013-07-12 05:32:00,
2013-07-12 01:43:00,81.0,-99.9,29.94,SSE,162,5.0,8.0,-999,-99.99,,,-99.99,,2013-07-12 05:43:00,
2013-07-12 01:53:00,81.0,-99.9,29.94,SSE,167,4.0,8.0,-999,-99.99,,,-99.99,,2013-07-12 05:53:00,
2013-07-12 02:02:00,81.0,-99.9,29.94,South,172,5.0,8.0,-999,-99.99,,,-99.99,,2013-07-12 06:02:00,
2013-07-12 02:11:00,81.0,-99.9,29.93,SSE,166,3.0,7.0,-999,-99.99,,,-99.99,,2013-07-12 06:11:00,
2013-07-12 02:22:00,81.0,-99.9,29.93,SSW,192,3.0,7.0,-999,-99.99,,,-99.99,,2013-07-12 06:22:00,
2013-07-12 02:33:00,80.0,-99.9,29.92,South,176,2.0,5.0,-999,-99.99,,,-99.99,,2013-07-12 06:33:00,
2013-07-12 02:52:00,80.0,-99.9,29.91,South,175,2.0,4.0,-999,-99.99,,,-99.99,,2013-07-12 06:52:00,
2013-07-12 03:02:00,80.0,-99.9,29.91,SSW,210,2.0,4.0,-999,-99.99,,,-99.99,,2013-07-12 07:02:00,
2013-07-12 03:12:00,80.0,-99.9,29.91,SSE,154,3.0,5.0,-999,-99.99,,,-99.99,,2013-07-12 07:12:00,
2013-07-12 03:22:00,80.0,-99.9,29.91,SSE,153,2.0,4.0,-999,-99.99,,,-99.99,,2013-07-12 07:22:00,
2013-07-12 03:33:00,80.0,-99.9,29.91,SSE,168,3.0,5.0,-999,-99.99,,,-99.99,,2013-07-12 07:33:00,
2013-07-12 03:43:00,80.0,-99.9,29.91,SSE,154,2.0,5.0,-999,-99.99,,,-99.99,,2013-07-12 07:43:00,
2013-07-12 03:52:00,80.0,-99.9,29.91,South,171,2.0,4.0,-999,-99.99,,,-99.99,,2013-07-12 07:52:00,
2013-07-12 04:02:00,80.0,-99.9,29.91,SSE,147,3.0,5.0,-999,-99.99,,,-99.99,,2013-07-12 08:02:00,
2013-07-12 04:11:00,80.0,-99.9,29.91,South,172,2.0,5.0,-999,-99.99,,,-99.99,,2013-07-12 08:11:00,
2013-07-12 04:32:00,80.0,-99.9,29.91,South,187,3.0,4.0,-999,-99.99,,,-99.99,,2013-07-12 08:32:00,
2013-07-12 04:42:00,80.0,-99.9,29.91,South,181,4.0,5.0,-999,-99.99,,,-99.99,,2013-07-12 08:42:00,
2013-07-12 05:02:00,80.0,-99.9,29.91,South,176,3.0,6.0,-999,-99.99,,,-99.99,,2013-07-12 09:02:00,
2013-07-12 05:13:00,80.0,-99.9,29.92,SSE,160,3.0,6.0,-999,-99.99,,,-99.99,,2013-07-12 09:13:00,
2013-07-12 05:22:00,80.0,-99.9,29.92,SSE,163,3.0,6.0,-999,-99.99,,,-99.99,,2013-07-12 09:22:00,
2013-07-12 06:43:00,80.0,-99.9,29.92,SSE,154,3.0,5.0,-999,-99.99,,,-99.99,,2013-07-12 10:43:00,
2013-07-12 07:43:00,80.0,-99.9,29.93,SSE,154,1.0,2.0,-999,-99.99,,,-99.99,,2013-07-12 11:43:00,
2013-07-12 08:32:00,82.0,-99.9,29.94,SE,127,2.0,3.0,-999,-99.99,,,-99.99,,2013-07-12 12:32:00,
2013-07-12 08:43:00,85.0,-99.9,29.95,SSE,163,2.0,3.0,-999,-99.99,,,-99.99,,2013-07-12 12:43:00,
2013-07-12 08:53:00,85.0,-99.9,29.95,South,171,2.0,5.0,-999,-99.99,,,-99.99,,2013-07-12 12:53:00,
2013-07-12 09:01:00,85.0,-99.9,29.95,ESE,118,3.0,5.0,-999,-99.99,,,-99.99,,2013-07-12 13:01:00,
2013-07-12 09:32:00,84.0,-99.9,29.96,SSE,151,2.0,7.0,-999,-99.99,,,-99.99,,2013-07-12 13:32:00,
2013-07-12 09:43:00,84.0,-99.9,29.96,ESE,117,4.0,8.0,-999,-99.99,,,-99.99,,2013-07-12 13:43:00,
2013-07-12 10:02:00,83.0,-99.9,29.96,SE,140,4.0,6.0,-999,-99.99,,,-99.99,,2013-07-12 14:02:00,
2013-07-12 10:32:00,85.0,-99.9,29.97,SE,141,3.0,8.0,-999,-99.99,,,-99.99,,2013-07-12 14:32:00,
2013-07-12 10:44:00,85.0,-99.9,29.98,SSE,158,5.0,8.0,-999,-99.99,,,-99.99,,2013-07-12 14:44:00,
2013-07-12 10:53:00,85.0,-99.9,29.98,SSE,160,6.0,8.0,-999,-99.99,,,-99.99,,2013-07-12 14:53:00,
2013-07-12 11:02:00,83.0,-99.9,29.98,SE,144,6.0,10.0,-999,-99.99,,,-99.99,,2013-07-12 15:02:00,
2013-07-12 12:02:00,85.0,-99.9,29.98,SSE,151,6.0,9.0,-999,-99.99,,,-99.99,,2013-07-12 16:02:00,
2013-07-12 13:07:00,89.0,-99.9,29.95,West,265,4.0,6.0,-999,-99.99,,,-99.99,,2013-07-12 17:07:00,
2013-07-12 14:08:00,90.0,-99.9,29.94,WSW,258,5.0,9.0,-999,-99.99,,,-99.99,,2013-07-12 18:08:00,
2013-07-12 14:52:00,91.0,-99.9,29.94,WSW,249,4.0,9.0,-999,-99.99,,,-99.99,,2013-07-12 18:52:00,
2013-07-12 15:05:00,91.0,-99.9,29.93,WSW,245,3.0,7.0,-999,-99.99,,,-99.99,,2013-07-12 19:05:00,
2013-07-12 15:15:00,91.0,-99.9,29.93,West,279,5.0,9.0,-999,-99.99,,,-99.99,,2013-07-12 19:15:00,
2013-07-12 15:25:00,91.0,-99.9,29.93,West,272,5.0,9.0,-999,-99.99,,,-99.99,,2013-07-12 19:25:00,
2013-07-12 15:48:00,91.0,-99.9,29.93,WSW,242,3.0,7.0,-999,-99.99,,,-99.99,,2013-07-12 19:48:00,
2013-07-12 16:04:00,89.0,-99.9,29.93,SSW,209,4.0,9.0,-999,-99.99,,,-99.99,,2013-07-12 20:04:00,
2013-07-12 17:04:00,88.0,-99.9,29.93,SW,217,4.0,9.0,-999,-99.99,,,-99.99,,2013-07-12 21:04:00,
2013-07-12 17:49:00,86.0,-99.9,29.91,SSW,202,5.0,10.0,-999,-99.99,,,-99.99,,2013-07-12 21:49:00,
2013-07-12 18:04:00,86.0,-99.9,29.91,South,178,6.0,11.0,-999,-99.99,,,-99.99,,2013-07-12 22:04:00,
2013-07-12 18:25:00,85.0,-99.9,29.90,South,175,7.0,14.0,-999,-99.99,,,-99.99,,2013-07-12 22:25:00,
2013-07-12 18:35:00,85.0,-99.9,29.91,South,172,6.0,12.0,-999,-99.99,,,-99.99,,2013-07-12 22:35:00,
2013-07-12 19:06:00,85.0,-99.9,29.91,South,173,6.0,11.0,-999,-99.99,,,-99.99,,2013-07-12 23:06:00,
2013-07-12 19:45:00,84.0,-99.9,29.92,South,177,6.0,13.0,-999,-99.99,,,-99.99,,2013-07-12 23:45:00,
2013-07-12 19:58:00,83.0,-99.9,29.93,South,185,6.0,10.0,-999,-99.99,,,-99.99,,2013-07-12 23:58:00,
2013-07-12 20:08:00,83.0,-99.9,29.93,South,186,4.0,11.0,-999,-99.99,,,-99.99,,2013-07-13 00:08:00,
2013-07-12 20:19:00,83.0,-99.9,29.93,South,180,3.0,6.0,-999,-99.99,,,-99.99,,2013-07-13 00:19:00,
2013-07-12 20:34:00,83.0,-99.9,29.93,SSW,192,3.0,7.0,-999,-99.99,,,-99.99,,2013-07-13 00:34:00,
2013-07-12 20:56:00,82.0,-99.9,29.94,South,181,6.0,12.0,-999,-99.99,,,-99.99,,2013-07-13 00:56:00,
2013-07-12 21:05:00,82.0,-99.9,29.94,South,181,7.0,12.0,-999,-99.99,,,-99.99,,2013-07-13 01:05:00,
2013-07-12 21:14:00,82.0,-99.9,29.94,South,182,7.0,11.0,-999,-99.99,,,-99.99,,2013-07-13 01:14:00,
2013-07-12 21:25:00,82.0,-99.9,29.95,South,177,6.0,13.0,-999,-99.99,,,-99.99,,2013-07-13 01:25:00,
2013-07-12 21:50:00,82.0,-99.9,29.95,SSE,166,6.0,12.0,-999,-99.99,,,-99.99,,2013-07-13 01:50:00,
2013-07-12 21:58:00,82.0,-99.9,29.95,South,170,6.0,11.0,-999,-99.99,,,-99.99,,2013-07-13 01:58:00,
2013-07-12 22:08:00,82.0,-99.9,29.95,South,175,4.0,11.0,-999,-99.99,,,-99.99,,2013-07-13 02:08:00,
2013-07-12 22:15:00,82.0,-99.9,29.95,South,184,6.0,9.0,-999,-99.99,,,-99.99,,2013-07-13 02:15:00,
2013-07-12 22:48:00,81.0,-99.9,29.95,South,180,6.0,10.0,-999,-99.99,,,-99.99,,2013-07-13 02:48:00,
2013-07-12 23:06:00,81.0,-99.9,29.95,South,188,6.0,10.0,-999,-99.99,,,-99.99,,2013-07-13 03:06:00,